sensor_id;sensor_type;location;lat;lon;timestamp;P1;durP1;ratioP1;P2;durP2;ratioP2
80647;SDS011;70012;0.000;0.000;2023-06-10T00:00:18;7.70;;;6.28;;
80647;SDS011;70012;0.000;0.000;2023-06-10T00:02:46;8.52;;;6.78;;
80647;SDS011;70012;0.000;0.000;2023-06-10T00:05:13;8.75;;;6.60;;
80647;SDS011;70012;0.000;0.000;2023-06-10T00:07:42;7.18;;;6.45;;
80647;SDS011;70012;0.000;0.000;2023-06-10T00:10:09;7.57;;;6.25;;
80647;SDS011;70012;0.000;0.000;2023-06-10T00:12:37;7.75;;;6.95;;
80647;SDS011;70012;0.000;0.000;2023-06-10T00:15:05;7.63;;;6.43;;
80647;SDS011;70012;0.000;0.000;2023-06-10T00:17:33;9.52;;;6.65;;
80647;SDS011;70012;0.000;0.000;2023-06-10T00:20:00;8.50;;;6.97;;
80647;SDS011;70012;0.000;0.000;2023-06-10T00:22:31;7.78;;;6.38;;
80647;SDS011;70012;0.000;0.000;2023-06-10T00:24:58;7.93;;;6.35;;
80647;SDS011;70012;0.000;0.000;2023-06-10T00:27:25;11.07;;;6.95;;
80647;SDS011;70012;0.000;0.000;2023-06-10T00:29:57;9.32;;;7.07;;
80647;SDS011;70012;0.000;0.000;2023-06-10T00:32:24;8.93;;;6.90;;
80647;SDS011;70012;0.000;0.000;2023-06-10T00:34:51;10.00;;;7.00;;
80647;SDS011;70012;0.000;0.000;2023-06-10T00:37:17;8.93;;;6.95;;
80647;SDS011;70012;0.000;0.000;2023-06-10T00:39:44;8.25;;;7.45;;
80647;SDS011;70012;0.000;0.000;2023-06-10T00:42:10;9.25;;;7.47;;
80647;SDS011;70012;0.000;0.000;2023-06-10T00:44:37;7.95;;;6.68;;
80647;SDS011;70012;0.000;0.000;2023-06-10T00:47:04;10.60;;;6.80;;
80647;SDS011;70012;0.000;0.000;2023-06-10T00:49:31;8.30;;;7.40;;
80647;SDS011;70012;0.000;0.000;2023-06-10T00:51:59;7.90;;;6.57;;
80647;SDS011;70012;0.000;0.000;2023-06-10T00:54:26;7.68;;;6.05;;
80647;SDS011;70012;0.000;0.000;2023-06-10T00:56:53;12.93;;;7.45;;
80647;SDS011;70012;0.000;0.000;2023-06-10T00:59:21;8.00;;;6.78;;
80647;SDS011;70012;0.000;0.000;2023-06-10T01:01:48;7.72;;;6.80;;
80647;SDS011;70012;0.000;0.000;2023-06-10T01:04:15;9.55;;;7.10;;
80647;SDS011;70012;0.000;0.000;2023-06-10T01:06:49;10.98;;;7.90;;
80647;SDS011;70012;0.000;0.000;2023-06-10T01:14:36;8.27;;;7.22;;
80647;SDS011;70012;0.000;0.000;2023-06-10T01:17:03;11.48;;;7.47;;
80647;SDS011;70012;0.000;0.000;2023-06-10T01:19:32;9.07;;;7.32;;
80647;SDS011;70012;0.000;0.000;2023-06-10T01:22:00;8.32;;;7.45;;
80647;SDS011;70012;0.000;0.000;2023-06-10T01:24:27;10.38;;;7.05;;
80647;SDS011;70012;0.000;0.000;2023-06-10T01:26:55;8.52;;;7.63;;
80647;SDS011;70012;0.000;0.000;2023-06-10T01:29:28;9.95;;;7.53;;
80647;SDS011;70012;0.000;0.000;2023-06-10T01:32:01;8.23;;;6.88;;
80647;SDS011;70012;0.000;0.000;2023-06-10T01:34:33;12.85;;;7.20;;
80647;SDS011;70012;0.000;0.000;2023-06-10T01:37:01;11.32;;;7.47;;
80647;SDS011;70012;0.000;0.000;2023-06-10T01:39:30;8.27;;;7.25;;
80647;SDS011;70012;0.000;0.000;2023-06-10T01:41:58;10.70;;;7.82;;
80647;SDS011;70012;0.000;0.000;2023-06-10T01:44:25;10.05;;;7.90;;
80647;SDS011;70012;0.000;0.000;2023-06-10T01:46:52;10.30;;;7.18;;
80647;SDS011;70012;0.000;0.000;2023-06-10T01:49:19;12.93;;;7.47;;
80647;SDS011;70012;0.000;0.000;2023-06-10T01:51:45;8.65;;;7.40;;
80647;SDS011;70012;0.000;0.000;2023-06-10T01:54:12;8.43;;;7.22;;
80647;SDS011;70012;0.000;0.000;2023-06-10T01:56:38;15.73;;;7.93;;
80647;SDS011;70012;0.000;0.000;2023-06-10T01:59:05;9.63;;;7.43;;
80647;SDS011;70012;0.000;0.000;2023-06-10T02:01:32;9.65;;;7.28;;
80647;SDS011;70012;0.000;0.000;2023-06-10T02:03:58;11.85;;;7.55;;
80647;SDS011;70012;0.000;0.000;2023-06-10T02:06:25;9.85;;;7.28;;
80647;SDS011;70012;0.000;0.000;2023-06-10T02:08:52;8.35;;;7.15;;
80647;SDS011;70012;0.000;0.000;2023-06-10T02:11:18;8.55;;;7.43;;
80647;SDS011;70012;0.000;0.000;2023-06-10T02:13:45;9.30;;;8.27;;
80647;SDS011;70012;0.000;0.000;2023-06-10T02:16:12;13.82;;;7.93;;
80647;SDS011;70012;0.000;0.000;2023-06-10T02:18:40;9.98;;;7.90;;
80647;SDS011;70012;0.000;0.000;2023-06-10T02:21:09;8.70;;;7.60;;
80647;SDS011;70012;0.000;0.000;2023-06-10T02:23:36;10.52;;;8.25;;
80647;SDS011;70012;0.000;0.000;2023-06-10T02:26:03;10.43;;;7.93;;
80647;SDS011;70012;0.000;0.000;2023-06-10T02:28:30;11.27;;;7.75;;
80647;SDS011;70012;0.000;0.000;2023-06-10T02:30:56;9.73;;;7.97;;
80647;SDS011;70012;0.000;0.000;2023-06-10T02:33:23;11.63;;;8.05;;
80647;SDS011;70012;0.000;0.000;2023-06-10T02:35:50;9.18;;;7.82;;
80647;SDS011;70012;0.000;0.000;2023-06-10T02:38:17;9.85;;;8.43;;
80647;SDS011;70012;0.000;0.000;2023-06-10T02:40:44;10.00;;;8.10;;
80647;SDS011;70012;0.000;0.000;2023-06-10T02:43:11;16.17;;;8.73;;
80647;SDS011;70012;0.000;0.000;2023-06-10T02:45:37;9.63;;;7.72;;
80647;SDS011;70012;0.000;0.000;2023-06-10T02:48:04;9.20;;;8.05;;
80647;SDS011;70012;0.000;0.000;2023-06-10T02:50:31;8.98;;;8.07;;
80647;SDS011;70012;0.000;0.000;2023-06-10T02:52:57;14.77;;;8.55;;
80647;SDS011;70012;0.000;0.000;2023-06-10T02:55:24;8.95;;;7.22;;
80647;SDS011;70012;0.000;0.000;2023-06-10T02:57:52;8.90;;;8.00;;
80647;SDS011;70012;0.000;0.000;2023-06-10T03:00:20;9.82;;;7.57;;
80647;SDS011;70012;0.000;0.000;2023-06-10T03:02:47;9.13;;;7.70;;
80647;SDS011;70012;0.000;0.000;2023-06-10T03:05:15;12.13;;;8.10;;
80647;SDS011;70012;0.000;0.000;2023-06-10T03:07:43;10.65;;;8.45;;
80647;SDS011;70012;0.000;0.000;2023-06-10T03:10:09;13.32;;;8.32;;
80647;SDS011;70012;0.000;0.000;2023-06-10T03:12:36;12.60;;;8.50;;
80647;SDS011;70012;0.000;0.000;2023-06-10T03:15:03;12.05;;;8.32;;
80647;SDS011;70012;0.000;0.000;2023-06-10T03:17:30;9.43;;;8.02;;
80647;SDS011;70012;0.000;0.000;2023-06-10T03:19:57;12.05;;;8.80;;
80647;SDS011;70012;0.000;0.000;2023-06-10T03:22:23;10.82;;;7.68;;
80647;SDS011;70012;0.000;0.000;2023-06-10T03:24:50;10.75;;;8.55;;
80647;SDS011;70012;0.000;0.000;2023-06-10T03:27:17;11.35;;;8.05;;
80647;SDS011;70012;0.000;0.000;2023-06-10T03:29:44;14.15;;;8.27;;
80647;SDS011;70012;0.000;0.000;2023-06-10T03:32:10;9.68;;;7.68;;
80647;SDS011;70012;0.000;0.000;2023-06-10T03:34:37;10.18;;;8.18;;
80647;SDS011;70012;0.000;0.000;2023-06-10T03:37:04;11.32;;;7.63;;
80647;SDS011;70012;0.000;0.000;2023-06-10T03:39:32;11.35;;;8.02;;
80647;SDS011;70012;0.000;0.000;2023-06-10T03:41:58;8.50;;;7.53;;
80647;SDS011;70012;0.000;0.000;2023-06-10T03:44:25;10.15;;;7.70;;
80647;SDS011;70012;0.000;0.000;2023-06-10T03:46:55;10.98;;;7.95;;
80647;SDS011;70012;0.000;0.000;2023-06-10T03:49:22;10.48;;;7.55;;
80647;SDS011;70012;0.000;0.000;2023-06-10T03:51:53;9.18;;;7.03;;
80647;SDS011;70012;0.000;0.000;2023-06-10T03:54:20;10.52;;;7.80;;
80647;SDS011;70012;0.000;0.000;2023-06-10T03:56:47;10.48;;;7.60;;
80647;SDS011;70012;0.000;0.000;2023-06-10T03:59:14;12.30;;;8.35;;
80647;SDS011;70012;0.000;0.000;2023-06-10T04:01:41;8.77;;;7.45;;
80647;SDS011;70012;0.000;0.000;2023-06-10T04:04:08;10.75;;;8.05;;
80647;SDS011;70012;0.000;0.000;2023-06-10T04:06:34;11.60;;;8.10;;
80647;SDS011;70012;0.000;0.000;2023-06-10T04:09:01;10.25;;;7.82;;
80647;SDS011;70012;0.000;0.000;2023-06-10T04:11:29;10.73;;;8.50;;
80647;SDS011;70012;0.000;0.000;2023-06-10T04:13:56;9.77;;;8.02;;
80647;SDS011;70012;0.000;0.000;2023-06-10T04:16:22;10.63;;;8.38;;
80647;SDS011;70012;0.000;0.000;2023-06-10T04:18:49;11.27;;;8.85;;
80647;SDS011;70012;0.000;0.000;2023-06-10T04:21:16;9.70;;;7.85;;
80647;SDS011;70012;0.000;0.000;2023-06-10T04:23:42;10.60;;;8.13;;
80647;SDS011;70012;0.000;0.000;2023-06-10T04:26:09;9.88;;;7.88;;
80647;SDS011;70012;0.000;0.000;2023-06-10T04:28:38;10.43;;;8.02;;
80647;SDS011;70012;0.000;0.000;2023-06-10T04:31:05;9.38;;;8.30;;
80647;SDS011;70012;0.000;0.000;2023-06-10T04:33:31;10.35;;;7.68;;
80647;SDS011;70012;0.000;0.000;2023-06-10T04:35:58;8.30;;;7.45;;
80647;SDS011;70012;0.000;0.000;2023-06-10T04:38:25;10.55;;;8.50;;
80647;SDS011;70012;0.000;0.000;2023-06-10T04:40:52;9.18;;;7.50;;
80647;SDS011;70012;0.000;0.000;2023-06-10T04:43:19;10.27;;;7.40;;
80647;SDS011;70012;0.000;0.000;2023-06-10T04:45:45;13.75;;;8.50;;
80647;SDS011;70012;0.000;0.000;2023-06-10T04:48:12;11.15;;;7.78;;
80647;SDS011;70012;0.000;0.000;2023-06-10T04:50:40;10.20;;;7.53;;
80647;SDS011;70012;0.000;0.000;2023-06-10T04:53:06;12.95;;;8.40;;
80647;SDS011;70012;0.000;0.000;2023-06-10T04:55:33;13.50;;;8.40;;
80647;SDS011;70012;0.000;0.000;2023-06-10T04:58:00;8.85;;;7.72;;
80647;SDS011;70012;0.000;0.000;2023-06-10T05:00:27;10.90;;;7.70;;
80647;SDS011;70012;0.000;0.000;2023-06-10T05:02:53;9.70;;;7.90;;
80647;SDS011;70012;0.000;0.000;2023-06-10T05:05:22;11.27;;;8.88;;
80647;SDS011;70012;0.000;0.000;2023-06-10T05:07:49;9.52;;;8.35;;
80647;SDS011;70012;0.000;0.000;2023-06-10T05:10:15;9.40;;;8.40;;
80647;SDS011;70012;0.000;0.000;2023-06-10T05:12:42;10.57;;;8.35;;
80647;SDS011;70012;0.000;0.000;2023-06-10T05:15:09;13.30;;;8.18;;
80647;SDS011;70012;0.000;0.000;2023-06-10T05:17:36;10.52;;;8.82;;
80647;SDS011;70012;0.000;0.000;2023-06-10T05:20:03;14.45;;;7.95;;
80647;SDS011;70012;0.000;0.000;2023-06-10T05:22:30;12.48;;;8.10;;
80647;SDS011;70012;0.000;0.000;2023-06-10T05:24:57;10.52;;;7.50;;
80647;SDS011;70012;0.000;0.000;2023-06-10T05:27:24;11.48;;;8.30;;
80647;SDS011;70012;0.000;0.000;2023-06-10T05:29:51;9.63;;;8.00;;
80647;SDS011;70012;0.000;0.000;2023-06-10T05:32:18;11.50;;;8.48;;
80647;SDS011;70012;0.000;0.000;2023-06-10T05:34:44;9.02;;;8.07;;
80647;SDS011;70012;0.000;0.000;2023-06-10T05:37:12;11.25;;;8.77;;
80647;SDS011;70012;0.000;0.000;2023-06-10T05:39:39;10.70;;;8.05;;
80647;SDS011;70012;0.000;0.000;2023-06-10T05:42:06;11.30;;;8.23;;
80647;SDS011;70012;0.000;0.000;2023-06-10T05:44:34;11.65;;;8.40;;
80647;SDS011;70012;0.000;0.000;2023-06-10T05:47:01;11.13;;;8.60;;
80647;SDS011;70012;0.000;0.000;2023-06-10T05:49:28;13.80;;;8.55;;
80647;SDS011;70012;0.000;0.000;2023-06-10T05:51:54;12.00;;;9.07;;
80647;SDS011;70012;0.000;0.000;2023-06-10T05:54:22;12.38;;;8.48;;
80647;SDS011;70012;0.000;0.000;2023-06-10T05:56:49;12.30;;;8.75;;
80647;SDS011;70012;0.000;0.000;2023-06-10T05:59:16;10.65;;;8.18;;
80647;SDS011;70012;0.000;0.000;2023-06-10T06:01:42;14.00;;;8.52;;
80647;SDS011;70012;0.000;0.000;2023-06-10T06:04:09;14.45;;;9.88;;
80647;SDS011;70012;0.000;0.000;2023-06-10T06:06:38;13.05;;;8.32;;
80647;SDS011;70012;0.000;0.000;2023-06-10T06:09:05;12.10;;;9.27;;
80647;SDS011;70012;0.000;0.000;2023-06-10T06:11:33;9.93;;;7.82;;
80647;SDS011;70012;0.000;0.000;2023-06-10T06:14:00;10.43;;;7.72;;
80647;SDS011;70012;0.000;0.000;2023-06-10T06:16:27;9.57;;;7.28;;
80647;SDS011;70012;0.000;0.000;2023-06-10T06:18:54;9.02;;;7.72;;
80647;SDS011;70012;0.000;0.000;2023-06-10T06:21:20;11.95;;;7.82;;
80647;SDS011;70012;0.000;0.000;2023-06-10T06:23:47;8.55;;;7.65;;
80647;SDS011;70012;0.000;0.000;2023-06-10T06:26:14;8.73;;;6.93;;
80647;SDS011;70012;0.000;0.000;2023-06-10T06:28:40;11.00;;;7.63;;
80647;SDS011;70012;0.000;0.000;2023-06-10T06:31:07;10.07;;;8.13;;
80647;SDS011;70012;0.000;0.000;2023-06-10T06:33:33;9.15;;;7.13;;
80647;SDS011;70012;0.000;0.000;2023-06-10T06:36:00;8.80;;;6.60;;
80647;SDS011;70012;0.000;0.000;2023-06-10T06:38:27;12.30;;;7.43;;
80647;SDS011;70012;0.000;0.000;2023-06-10T06:40:53;8.45;;;7.15;;
80647;SDS011;70012;0.000;0.000;2023-06-10T06:43:20;7.60;;;6.55;;
80647;SDS011;70012;0.000;0.000;2023-06-10T06:45:47;10.25;;;7.00;;
80647;SDS011;70012;0.000;0.000;2023-06-10T06:48:13;12.07;;;7.97;;
80647;SDS011;70012;0.000;0.000;2023-06-10T06:50:40;14.77;;;7.20;;
80647;SDS011;70012;0.000;0.000;2023-06-10T06:53:08;9.48;;;7.43;;
80647;SDS011;70012;0.000;0.000;2023-06-10T06:55:34;12.85;;;7.13;;
80647;SDS011;70012;0.000;0.000;2023-06-10T06:58:01;13.20;;;7.40;;
80647;SDS011;70012;0.000;0.000;2023-06-10T07:00:30;10.45;;;6.55;;
80647;SDS011;70012;0.000;0.000;2023-06-10T07:03:00;10.35;;;6.72;;
80647;SDS011;70012;0.000;0.000;2023-06-10T07:05:27;7.10;;;6.13;;
80647;SDS011;70012;0.000;0.000;2023-06-10T07:07:54;8.07;;;6.47;;
80647;SDS011;70012;0.000;0.000;2023-06-10T07:10:22;8.45;;;6.30;;
80647;SDS011;70012;0.000;0.000;2023-06-10T07:12:50;11.57;;;6.88;;
80647;SDS011;70012;0.000;0.000;2023-06-10T07:15:17;8.13;;;6.75;;
80647;SDS011;70012;0.000;0.000;2023-06-10T07:17:44;9.30;;;7.07;;
80647;SDS011;70012;0.000;0.000;2023-06-10T07:20:11;9.07;;;6.88;;
80647;SDS011;70012;0.000;0.000;2023-06-10T07:22:38;9.23;;;6.30;;
80647;SDS011;70012;0.000;0.000;2023-06-10T07:25:05;8.68;;;6.32;;
80647;SDS011;70012;0.000;0.000;2023-06-10T07:27:33;9.13;;;6.18;;
80647;SDS011;70012;0.000;0.000;2023-06-10T07:29:59;7.82;;;5.90;;
80647;SDS011;70012;0.000;0.000;2023-06-10T07:32:27;9.85;;;6.50;;
80647;SDS011;70012;0.000;0.000;2023-06-10T07:34:53;12.52;;;6.82;;
80647;SDS011;70012;0.000;0.000;2023-06-10T07:37:20;10.27;;;6.35;;
80647;SDS011;70012;0.000;0.000;2023-06-10T07:39:47;10.70;;;6.57;;
80647;SDS011;70012;0.000;0.000;2023-06-10T07:42:14;7.05;;;6.35;;
80647;SDS011;70012;0.000;0.000;2023-06-10T07:44:40;9.68;;;6.15;;
80647;SDS011;70012;0.000;0.000;2023-06-10T07:47:07;9.23;;;5.93;;
80647;SDS011;70012;0.000;0.000;2023-06-10T07:49:33;7.05;;;5.68;;
80647;SDS011;70012;0.000;0.000;2023-06-10T07:52:00;10.40;;;6.95;;
80647;SDS011;70012;0.000;0.000;2023-06-10T07:54:27;7.72;;;6.03;;
80647;SDS011;70012;0.000;0.000;2023-06-10T07:56:55;9.25;;;6.18;;
80647;SDS011;70012;0.000;0.000;2023-06-10T07:59:22;7.55;;;6.07;;
80647;SDS011;70012;0.000;0.000;2023-06-10T08:01:49;7.30;;;5.65;;
80647;SDS011;70012;0.000;0.000;2023-06-10T08:04:15;7.93;;;5.78;;
80647;SDS011;70012;0.000;0.000;2023-06-10T08:06:42;10.13;;;6.30;;
80647;SDS011;70012;0.000;0.000;2023-06-10T08:09:09;8.18;;;5.65;;
80647;SDS011;70012;0.000;0.000;2023-06-10T08:11:36;9.00;;;5.63;;
80647;SDS011;70012;0.000;0.000;2023-06-10T08:14:02;7.53;;;6.05;;
80647;SDS011;70012;0.000;0.000;2023-06-10T08:16:29;9.32;;;7.00;;
80647;SDS011;70012;0.000;0.000;2023-06-10T08:18:56;8.60;;;6.25;;
80647;SDS011;70012;0.000;0.000;2023-06-10T08:21:22;8.57;;;6.53;;
80647;SDS011;70012;0.000;0.000;2023-06-10T08:23:52;9.40;;;5.95;;
80647;SDS011;70012;0.000;0.000;2023-06-10T08:26:20;8.38;;;6.40;;
80647;SDS011;70012;0.000;0.000;2023-06-10T08:28:46;7.75;;;6.20;;
80647;SDS011;70012;0.000;0.000;2023-06-10T08:31:13;7.63;;;6.32;;
80647;SDS011;70012;0.000;0.000;2023-06-10T08:33:41;8.55;;;6.20;;
80647;SDS011;70012;0.000;0.000;2023-06-10T08:36:08;8.93;;;6.55;;
80647;SDS011;70012;0.000;0.000;2023-06-10T08:38:35;10.95;;;6.20;;
80647;SDS011;70012;0.000;0.000;2023-06-10T08:41:02;8.93;;;6.25;;
80647;SDS011;70012;0.000;0.000;2023-06-10T08:43:39;10.75;;;6.55;;
80647;SDS011;70012;0.000;0.000;2023-06-10T08:48:39;7.40;;;5.70;;
80647;SDS011;70012;0.000;0.000;2023-06-10T08:51:11;8.48;;;6.13;;
80647;SDS011;70012;0.000;0.000;2023-06-10T08:53:42;7.97;;;6.22;;
80647;SDS011;70012;0.000;0.000;2023-06-10T08:56:16;9.68;;;5.95;;
80647;SDS011;70012;0.000;0.000;2023-06-10T08:58:44;9.27;;;5.88;;
80647;SDS011;70012;0.000;0.000;2023-06-10T09:01:12;8.88;;;6.20;;
80647;SDS011;70012;0.000;0.000;2023-06-10T09:03:39;7.85;;;6.25;;
80647;SDS011;70012;0.000;0.000;2023-06-10T09:06:08;8.15;;;6.25;;
80647;SDS011;70012;0.000;0.000;2023-06-10T09:08:35;9.95;;;6.63;;
80647;SDS011;70012;0.000;0.000;2023-06-10T09:11:02;7.63;;;5.95;;
80647;SDS011;70012;0.000;0.000;2023-06-10T09:13:29;9.23;;;6.82;;
80647;SDS011;70012;0.000;0.000;2023-06-10T09:15:55;11.98;;;6.35;;
80647;SDS011;70012;0.000;0.000;2023-06-10T09:18:27;10.05;;;6.72;;
80647;SDS011;70012;0.000;0.000;2023-06-10T09:20:56;15.00;;;6.43;;
80647;SDS011;70012;0.000;0.000;2023-06-10T09:23:23;10.02;;;6.22;;
80647;SDS011;70012;0.000;0.000;2023-06-10T09:25:55;9.13;;;6.43;;
80647;SDS011;70012;0.000;0.000;2023-06-10T09:28:24;6.18;;;5.57;;
80647;SDS011;70012;0.000;0.000;2023-06-10T09:31:05;9.63;;;6.43;;
80647;SDS011;70012;0.000;0.000;2023-06-10T09:33:36;6.70;;;6.00;;
80647;SDS011;70012;0.000;0.000;2023-06-10T09:36:04;8.50;;;6.60;;
80647;SDS011;70012;0.000;0.000;2023-06-10T09:38:32;7.97;;;7.18;;
80647;SDS011;70012;0.000;0.000;2023-06-10T09:40:59;9.30;;;6.95;;
80647;SDS011;70012;0.000;0.000;2023-06-10T09:43:51;8.05;;;6.45;;
80647;SDS011;70012;0.000;0.000;2023-06-10T09:46:19;7.15;;;5.97;;
80647;SDS011;70012;0.000;0.000;2023-06-10T09:48:47;11.52;;;6.85;;
80647;SDS011;70012;0.000;0.000;2023-06-10T09:51:14;12.30;;;6.97;;
80647;SDS011;70012;0.000;0.000;2023-06-10T09:53:47;7.10;;;6.40;;
80647;SDS011;70012;0.000;0.000;2023-06-10T09:56:14;8.90;;;6.10;;
80647;SDS011;70012;0.000;0.000;2023-06-10T09:58:41;10.10;;;6.75;;
80647;SDS011;70012;0.000;0.000;2023-06-10T10:01:11;8.82;;;5.95;;
80647;SDS011;70012;0.000;0.000;2023-06-10T10:03:45;8.32;;;6.78;;
80647;SDS011;70012;0.000;0.000;2023-06-10T10:06:14;10.07;;;6.18;;
80647;SDS011;70012;0.000;0.000;2023-06-10T10:08:42;6.63;;;5.88;;
80647;SDS011;70012;0.000;0.000;2023-06-10T10:11:10;8.00;;;6.38;;
80647;SDS011;70012;0.000;0.000;2023-06-10T10:13:37;10.35;;;6.68;;
80647;SDS011;70012;0.000;0.000;2023-06-10T10:16:06;8.18;;;6.10;;
80647;SDS011;70012;0.000;0.000;2023-06-10T10:18:55;9.93;;;6.10;;
80647;SDS011;70012;0.000;0.000;2023-06-10T10:21:27;7.25;;;6.15;;
80647;SDS011;70012;0.000;0.000;2023-06-10T10:24:05;9.18;;;6.05;;
80647;SDS011;70012;0.000;0.000;2023-06-10T10:26:39;9.65;;;6.90;;
80647;SDS011;70012;0.000;0.000;2023-06-10T10:32:08;7.95;;;6.28;;
80647;SDS011;70012;0.000;0.000;2023-06-10T10:34:45;6.47;;;5.35;;
80647;SDS011;70012;0.000;0.000;2023-06-10T10:37:19;8.00;;;6.55;;
80647;SDS011;70012;0.000;0.000;2023-06-10T10:39:46;9.57;;;5.90;;
80647;SDS011;70012;0.000;0.000;2023-06-10T10:42:14;7.20;;;5.85;;
80647;SDS011;70012;0.000;0.000;2023-06-10T10:44:42;10.77;;;6.05;;
80647;SDS011;70012;0.000;0.000;2023-06-10T10:47:09;7.95;;;6.10;;
80647;SDS011;70012;0.000;0.000;2023-06-10T10:49:37;6.65;;;5.57;;
80647;SDS011;70012;0.000;0.000;2023-06-10T10:52:10;6.47;;;5.82;;
80647;SDS011;70012;0.000;0.000;2023-06-10T10:54:39;6.72;;;5.70;;
80647;SDS011;70012;0.000;0.000;2023-06-10T10:57:21;8.40;;;5.85;;
80647;SDS011;70012;0.000;0.000;2023-06-10T11:02:45;7.10;;;6.22;;
80647;SDS011;70012;0.000;0.000;2023-06-10T11:05:14;7.82;;;5.93;;
80647;SDS011;70012;0.000;0.000;2023-06-10T11:07:51;9.90;;;6.07;;
80647;SDS011;70012;0.000;0.000;2023-06-10T11:10:29;6.88;;;6.25;;
80647;SDS011;70012;0.000;0.000;2023-06-10T11:12:57;7.60;;;6.15;;
80647;SDS011;70012;0.000;0.000;2023-06-10T11:15:25;6.50;;;5.60;;
80647;SDS011;70012;0.000;0.000;2023-06-10T11:31:26;8.43;;;5.88;;
80647;SDS011;70012;0.000;0.000;2023-06-10T11:33:58;8.48;;;6.13;;
80647;SDS011;70012;0.000;0.000;2023-06-10T11:36:34;8.18;;;5.60;;
80647;SDS011;70012;0.000;0.000;2023-06-10T11:39:04;6.63;;;5.28;;
80647;SDS011;70012;0.000;0.000;2023-06-10T11:41:47;7.88;;;5.90;;
80647;SDS011;70012;0.000;0.000;2023-06-10T11:44:15;7.10;;;5.60;;
80647;SDS011;70012;0.000;0.000;2023-06-10T11:46:46;8.57;;;5.53;;
80647;SDS011;70012;0.000;0.000;2023-06-10T11:49:14;6.45;;;5.75;;
80647;SDS011;70012;0.000;0.000;2023-06-10T11:51:41;8.07;;;5.43;;
80647;SDS011;70012;0.000;0.000;2023-06-10T11:54:15;6.68;;;5.25;;
80647;SDS011;70012;0.000;0.000;2023-06-10T11:56:43;9.52;;;5.75;;
80647;SDS011;70012;0.000;0.000;2023-06-10T11:59:10;6.40;;;4.95;;
80647;SDS011;70012;0.000;0.000;2023-06-10T12:01:39;6.90;;;5.10;;
80647;SDS011;70012;0.000;0.000;2023-06-10T12:04:10;8.30;;;5.80;;
80647;SDS011;70012;0.000;0.000;2023-06-10T12:12:05;6.60;;;5.40;;
80647;SDS011;70012;0.000;0.000;2023-06-10T12:20:01;9.10;;;5.63;;
80647;SDS011;70012;0.000;0.000;2023-06-10T12:22:39;7.70;;;4.70;;
80647;SDS011;70012;0.000;0.000;2023-06-10T12:25:08;6.90;;;5.50;;
80647;SDS011;70012;0.000;0.000;2023-06-10T12:27:37;9.52;;;5.22;;
80647;SDS011;70012;0.000;0.000;2023-06-10T12:30:05;6.20;;;5.10;;
80647;SDS011;70012;0.000;0.000;2023-06-10T12:32:40;7.45;;;5.32;;
80647;SDS011;70012;0.000;0.000;2023-06-10T12:35:09;7.53;;;4.70;;
80647;SDS011;70012;0.000;0.000;2023-06-10T12:38:00;6.97;;;4.85;;
80647;SDS011;70012;0.000;0.000;2023-06-10T12:40:33;7.85;;;5.20;;
80647;SDS011;70012;0.000;0.000;2023-06-10T12:43:02;6.05;;;4.82;;
80647;SDS011;70012;0.000;0.000;2023-06-10T12:45:30;6.93;;;4.78;;
80647;SDS011;70012;0.000;0.000;2023-06-10T12:50:51;5.75;;;4.80;;
80647;SDS011;70012;0.000;0.000;2023-06-10T12:53:20;7.70;;;5.00;;
80647;SDS011;70012;0.000;0.000;2023-06-10T12:55:52;6.65;;;4.72;;
80647;SDS011;70012;0.000;0.000;2023-06-10T12:58:19;5.05;;;4.45;;
80647;SDS011;70012;0.000;0.000;2023-06-10T13:00:47;5.72;;;4.53;;
80647;SDS011;70012;0.000;0.000;2023-06-10T13:03:15;6.68;;;5.00;;
80647;SDS011;70012;0.000;0.000;2023-06-10T13:05:42;7.80;;;4.55;;
80647;SDS011;70012;0.000;0.000;2023-06-10T13:08:09;10.40;;;4.80;;
80647;SDS011;70012;0.000;0.000;2023-06-10T13:10:39;6.85;;;5.35;;
80647;SDS011;70012;0.000;0.000;2023-06-10T13:13:05;5.45;;;4.50;;
80647;SDS011;70012;0.000;0.000;2023-06-10T13:15:34;5.65;;;4.55;;
80647;SDS011;70012;0.000;0.000;2023-06-10T13:18:08;8.30;;;4.57;;
80647;SDS011;70012;0.000;0.000;2023-06-10T13:20:35;7.35;;;4.82;;
80647;SDS011;70012;0.000;0.000;2023-06-10T13:23:02;5.93;;;4.30;;
80647;SDS011;70012;0.000;0.000;2023-06-10T13:25:29;8.02;;;4.72;;
80647;SDS011;70012;0.000;0.000;2023-06-10T13:27:56;6.03;;;5.10;;
80647;SDS011;70012;0.000;0.000;2023-06-10T13:30:23;7.75;;;4.45;;
80647;SDS011;70012;0.000;0.000;2023-06-10T13:32:49;5.20;;;4.70;;
80647;SDS011;70012;0.000;0.000;2023-06-10T13:35:16;6.68;;;4.75;;
80647;SDS011;70012;0.000;0.000;2023-06-10T13:37:43;7.18;;;4.78;;
80647;SDS011;70012;0.000;0.000;2023-06-10T13:40:10;6.50;;;4.75;;
80647;SDS011;70012;0.000;0.000;2023-06-10T13:42:37;7.20;;;4.60;;
80647;SDS011;70012;0.000;0.000;2023-06-10T13:45:04;11.50;;;4.93;;
80647;SDS011;70012;0.000;0.000;2023-06-10T13:47:32;7.88;;;4.75;;
80647;SDS011;70012;0.000;0.000;2023-06-10T13:50:00;6.18;;;4.75;;
80647;SDS011;70012;0.000;0.000;2023-06-10T13:52:28;5.68;;;4.50;;
80647;SDS011;70012;0.000;0.000;2023-06-10T13:54:57;5.78;;;4.47;;
80647;SDS011;70012;0.000;0.000;2023-06-10T13:57:24;5.72;;;4.32;;
80647;SDS011;70012;0.000;0.000;2023-06-10T13:59:50;5.10;;;4.35;;
80647;SDS011;70012;0.000;0.000;2023-06-10T14:02:18;5.97;;;5.03;;
80647;SDS011;70012;0.000;0.000;2023-06-10T14:04:45;5.85;;;4.38;;
80647;SDS011;70012;0.000;0.000;2023-06-10T14:07:14;7.80;;;4.25;;
80647;SDS011;70012;0.000;0.000;2023-06-10T14:09:42;6.03;;;4.30;;
80647;SDS011;70012;0.000;0.000;2023-06-10T14:12:09;7.75;;;4.70;;
80647;SDS011;70012;0.000;0.000;2023-06-10T14:14:38;7.15;;;4.47;;
80647;SDS011;70012;0.000;0.000;2023-06-10T14:17:05;5.28;;;4.30;;
80647;SDS011;70012;0.000;0.000;2023-06-10T14:19:32;7.57;;;4.50;;
80647;SDS011;70012;0.000;0.000;2023-06-10T14:21:59;8.43;;;4.40;;
80647;SDS011;70012;0.000;0.000;2023-06-10T14:24:26;7.75;;;4.50;;
80647;SDS011;70012;0.000;0.000;2023-06-10T14:26:53;7.60;;;4.47;;
80647;SDS011;70012;0.000;0.000;2023-06-10T14:29:22;5.15;;;4.63;;
80647;SDS011;70012;0.000;0.000;2023-06-10T14:31:48;4.93;;;4.28;;
80647;SDS011;70012;0.000;0.000;2023-06-10T14:34:15;9.57;;;4.55;;
80647;SDS011;70012;0.000;0.000;2023-06-10T14:36:42;7.28;;;4.35;;
80647;SDS011;70012;0.000;0.000;2023-06-10T14:39:09;5.15;;;4.55;;
80647;SDS011;70012;0.000;0.000;2023-06-10T14:41:36;6.10;;;4.10;;
80647;SDS011;70012;0.000;0.000;2023-06-10T14:44:02;6.60;;;4.40;;
80647;SDS011;70012;0.000;0.000;2023-06-10T14:46:29;8.13;;;4.70;;
80647;SDS011;70012;0.000;0.000;2023-06-10T14:48:56;5.00;;;4.50;;
80647;SDS011;70012;0.000;0.000;2023-06-10T14:51:25;4.75;;;4.15;;
80647;SDS011;70012;0.000;0.000;2023-06-10T14:53:52;5.93;;;4.72;;
80647;SDS011;70012;0.000;0.000;2023-06-10T14:56:18;6.00;;;4.82;;
80647;SDS011;70012;0.000;0.000;2023-06-10T14:58:45;5.63;;;4.32;;
80647;SDS011;70012;0.000;0.000;2023-06-10T15:01:12;6.57;;;4.78;;
80647;SDS011;70012;0.000;0.000;2023-06-10T15:03:38;6.88;;;4.75;;
80647;SDS011;70012;0.000;0.000;2023-06-10T15:06:05;6.38;;;4.75;;
80647;SDS011;70012;0.000;0.000;2023-06-10T15:08:32;10.20;;;4.68;;
80647;SDS011;70012;0.000;0.000;2023-06-10T15:10:59;5.90;;;4.70;;
80647;SDS011;70012;0.000;0.000;2023-06-10T15:13:28;7.65;;;4.97;;
80647;SDS011;70012;0.000;0.000;2023-06-10T15:15:55;6.80;;;5.43;;
80647;SDS011;70012;0.000;0.000;2023-06-10T15:18:23;15.48;;;5.45;;
80647;SDS011;70012;0.000;0.000;2023-06-10T15:20:53;6.60;;;5.13;;
80647;SDS011;70012;0.000;0.000;2023-06-10T15:23:19;4.32;;;3.92;;
80647;SDS011;70012;0.000;0.000;2023-06-10T15:25:47;5.22;;;4.07;;
80647;SDS011;70012;0.000;0.000;2023-06-10T15:28:13;8.30;;;5.30;;
80647;SDS011;70012;0.000;0.000;2023-06-10T15:30:40;6.55;;;4.22;;
80647;SDS011;70012;0.000;0.000;2023-06-10T15:33:06;6.85;;;5.07;;
80647;SDS011;70012;0.000;0.000;2023-06-10T15:35:33;6.10;;;4.70;;
80647;SDS011;70012;0.000;0.000;2023-06-10T15:38:00;7.47;;;4.75;;
80647;SDS011;70012;0.000;0.000;2023-06-10T15:40:49;6.20;;;5.60;;
80647;SDS011;70012;0.000;0.000;2023-06-10T15:43:16;4.93;;;4.25;;